메인 페이지
METAR-TAF:

METAR-TAF

공항 :

캔버라 국제공항

캔버라, 오스트레일리아

위도: 35-18S, 경도: 149-11E, 고도: 575m

현재 날씨관측

예보는 39분 전, 13:00시(UTC)에 발표되었습니다.
무풍
온도 4°C
습도 100%
기압 1027 hPa
시정: 4500m
박무,

METAR: YSCB 251300Z AUTO 00000KT 4500 BR NCD 04/04 Q1027 RF00.0/000.0

시각: 23:39 (13:39 UTC)

예보

예보는 2 시간 23분 전, 11:16시(UTC)에 발표되었습니다.
예보 대상 시간: 25일 12시부터 26일 12시까지 (UTC)
여러 방향의 바람 3kt
시정 10km 이상
1500m 미만 상공 구름 및 적란운 없음
26일 0300시부터 (UTC)
북북서8kt
시정 10km 이상
1500m 미만 상공 구름 및 적란운 없음
26일 1000시부터 (UTC)
여러 방향의 바람 3kt
시정 10km 이상
1500m 미만 상공 구름 및 적란운 없음
확률 30%
25일 15시부터 25일 23시까지 (UTC)
시정: 0500m
안개,

TAF: YSCB 251116Z 2512/2612 VRB03KT CAVOK FM260300 34008KT CAVOK FM261000 VRB03KT CAVOK PROB30 2515/2523 0500 FG

4,000개 이상의 공항 관측 자료 및 예보 (METAR 및 TAF 보고).

지도상에서 검색 가능한 기상관측소가 노란 점과 빨간 점으로 표시되어 있습니다.

기상관측소 명을 보려면 표시 위로 마우스를 이동하세요.

날씨 관측과 예보를 보려면 클릭하세요.

지도 변경 : 확대하려면 엑스 표시가 있는 녹색 버튼, 축소하려면 빼기 표시가 있는 녹색 버튼, 다음 페이지의 지도를 보려면 녹색 화살표를 클릭하세요.


METAR-TAF: